createdAt,value
2018-06-18T00:00:41.424Z,98.38
2018-06-18T00:01:42.008Z,98.10
2018-06-18T00:02:42.569Z,98.19
2018-06-18T00:03:43.158Z,98.38
2018-06-18T00:04:43.740Z,98.57
2018-06-18T00:05:44.300Z,98.57
2018-06-18T00:06:44.865Z,98.10
2018-06-18T00:07:45.450Z,98.28
2018-06-18T00:08:46.009Z,98.19
2018-06-18T00:09:46.571Z,98.00
2018-06-18T00:10:47.133Z,97.71
2018-06-18T00:11:47.695Z,97.80
2018-06-18T00:12:48.258Z,97.42
2018-06-18T00:13:48.820Z,97.71
2018-06-18T00:14:49.382Z,97.23
2018-06-18T00:15:49.944Z,96.94
2018-06-18T00:16:50.515Z,97.04
2018-06-18T00:17:51.090Z,97.52
2018-06-18T00:18:51.659Z,97.33
2018-06-18T00:19:52.221Z,96.66
2018-06-18T00:20:52.771Z,97.04
2018-06-18T00:21:53.328Z,96.56
2018-06-18T00:22:53.872Z,97.04
2018-06-18T00:23:54.421Z,96.66
2018-06-18T00:24:54.975Z,97.14
2018-06-18T00:25:55.529Z,96.94
2018-06-18T00:26:56.076Z,97.04
2018-06-18T00:27:56.629Z,97.23
2018-06-18T00:28:57.171Z,97.33
2018-06-18T00:29:57.716Z,97.61
2018-06-18T00:30:58.269Z,97.33
2018-06-18T00:31:58.820Z,97.33
2018-06-18T00:32:59.373Z,97.90
2018-06-18T00:33:59.929Z,98.10
2018-06-18T00:35:00.477Z,97.71
2018-06-18T00:36:01.028Z,97.33
2018-06-18T00:37:01.579Z,97.71
2018-06-18T00:38:02.128Z,98.57
2018-06-18T00:39:02.686Z,99.53
2018-06-18T00:40:03.231Z,99.43
2018-06-18T00:41:03.782Z,97.80
2018-06-18T00:42:04.333Z,97.90
2018-06-18T00:43:04.881Z,97.95
2018-06-18T00:44:05.425Z,99.29
2018-06-18T00:45:05.980Z,99.58
2018-06-18T00:46:06.531Z,99.72
2018-06-18T00:47:07.080Z,99.58
2018-06-18T00:48:07.626Z,98.91
2018-06-18T00:49:08.178Z,98.96
2018-06-18T00:50:08.728Z,98.28
2018-06-18T00:51:09.273Z,97.28
2018-06-18T00:52:09.823Z,98.38
2018-06-18T00:53:10.377Z,97.18
2018-06-18T00:54:10.927Z,97.66
2018-06-18T00:55:11.472Z,97.66
2018-06-18T00:56:12.027Z,97.28
2018-06-18T00:57:12.575Z,98.24
2018-06-18T00:58:13.124Z,98.71
2018-06-18T00:59:13.678Z,98.81
2018-06-18T01:00:14.233Z,98.52
2018-06-18T01:01:14.772Z,99.29
2018-06-18T01:02:15.328Z,98.81
2018-06-18T01:03:15.878Z,99.48
2018-06-18T01:04:16.429Z,99.38
2018-06-18T01:05:16.979Z,99.38
2018-06-18T01:06:17.534Z,99.58
2018-06-18T01:07:18.080Z,99.58
2018-06-18T01:08:18.629Z,99.96
2018-06-18T01:09:19.180Z,99.87
2018-06-18T01:10:19.734Z,99.67
2018-06-18T01:11:20.290Z,99.99
2018-06-18T01:12:20.840Z,99.99
2018-06-18T01:13:21.387Z,99.99
2018-06-18T01:14:21.936Z,99.58
2018-06-18T01:15:22.479Z,99.96
2018-06-18T01:16:23.029Z,99.99
2018-06-18T01:17:23.580Z,99.99
2018-06-18T01:18:24.133Z,99.99
2018-06-18T01:19:24.690Z,99.96
2018-06-18T01:20:25.234Z,99.99
2018-06-18T01:21:25.788Z,99.87
2018-06-18T01:22:26.340Z,99.96
2018-06-18T01:23:26.891Z,99.96
2018-06-18T01:24:27.438Z,99.99
2018-06-18T01:25:27.991Z,99.99
2018-06-18T01:26:28.537Z,99.99
2018-06-18T01:27:29.091Z,99.67
2018-06-18T01:28:29.639Z,99.96
2018-06-18T01:29:30.183Z,99.87
2018-06-18T01:30:30.736Z,99.99
2018-06-18T01:31:31.282Z,99.96
2018-06-18T01:32:31.836Z,99.99
2018-06-18T01:33:32.384Z,99.87
2018-06-18T01:34:32.930Z,99.99
2018-06-18T01:35:33.483Z,99.99
2018-06-18T01:36:34.040Z,99.99
2018-06-18T01:37:34.588Z,99.99
2018-06-18T01:38:35.128Z,99.99
2018-06-18T01:39:35.687Z,99.99
2018-06-18T01:40:36.236Z,99.99
2018-06-18T01:41:36.781Z,99.99
2018-06-18T01:42:37.328Z,99.99
2018-06-18T01:43:37.878Z,99.99
2018-06-18T01:44:38.427Z,99.99
2018-06-18T01:45:38.977Z,99.99
2018-06-18T01:46:39.529Z,99.99
2018-06-18T01:47:40.076Z,99.96
2018-06-18T01:48:40.625Z,99.99
2018-06-18T01:49:41.179Z,99.99
2018-06-18T01:50:41.734Z,99.99
2018-06-18T01:51:42.283Z,99.99
2018-06-18T01:52:42.833Z,99.99
2018-06-18T01:53:43.393Z,99.99
2018-06-18T01:54:43.930Z,99.99
2018-06-18T01:55:44.481Z,99.99
2018-06-18T01:56:45.035Z,99.99
2018-06-18T01:57:45.586Z,99.99
2018-06-18T01:58:46.133Z,99.99
2018-06-18T01:59:46.680Z,99.99
2018-06-18T02:00:47.231Z,99.99
2018-06-18T02:01:47.782Z,99.99
2018-06-18T02:02:48.334Z,99.99
2018-06-18T02:03:48.887Z,99.99
2018-06-18T02:04:49.437Z,99.99
2018-06-18T02:05:49.991Z,99.99
2018-06-18T02:06:50.540Z,99.99
2018-06-18T02:07:51.093Z,99.99
2018-06-18T02:08:51.646Z,99.99
2018-06-18T02:09:52.197Z,99.99
2018-06-18T02:10:52.745Z,99.99
2018-06-18T02:11:53.294Z,99.99
2018-06-18T02:12:53.845Z,99.99
2018-06-18T02:13:54.444Z,99.99
2018-06-18T02:14:54.954Z,99.99
2018-06-18T02:15:55.502Z,99.99
2018-06-18T02:16:56.054Z,99.99
2018-06-18T02:17:56.607Z,99.99
2018-06-18T02:18:57.149Z,99.99
2018-06-18T02:19:57.704Z,99.99
2018-06-18T02:20:58.257Z,99.99
2018-06-18T02:21:58.802Z,99.99
2018-06-18T02:22:59.356Z,99.99
2018-06-18T02:23:59.909Z,99.99
2018-06-18T02:25:00.458Z,99.99
2018-06-18T02:26:01.002Z,99.99
2018-06-18T02:27:01.553Z,99.99
2018-06-18T02:28:02.109Z,99.99
2018-06-18T02:29:02.652Z,99.99
2018-06-18T02:30:03.199Z,99.99
2018-06-18T02:31:03.745Z,99.99
2018-06-18T02:32:04.300Z,99.99
2018-06-18T02:33:04.868Z,99.99
2018-06-18T02:34:05.405Z,99.99
2018-06-18T02:35:05.952Z,99.99
2018-06-18T02:36:06.503Z,99.99
2018-06-18T02:37:07.102Z,99.99
2018-06-18T02:38:07.599Z,99.99
2018-06-18T02:39:08.159Z,99.99
2018-06-18T02:40:08.705Z,99.99
2018-06-18T02:41:09.257Z,99.99
2018-06-18T02:42:09.802Z,99.99
2018-06-18T02:43:10.357Z,99.99
2018-06-18T02:44:10.907Z,99.99
2018-06-18T02:45:11.451Z,99.99
2018-06-18T02:46:12.001Z,99.99
2018-06-18T02:47:12.546Z,99.99
2018-06-18T02:48:13.097Z,99.99
2018-06-18T02:49:13.654Z,99.99
2018-06-18T02:50:14.199Z,99.99
2018-06-18T02:51:14.750Z,99.99
2018-06-18T02:52:15.302Z,99.99
2018-06-18T02:53:15.855Z,99.99
2018-06-18T02:54:16.405Z,99.99
2018-06-18T02:55:16.958Z,99.99
2018-06-18T02:56:17.512Z,99.99
2018-06-18T02:57:18.060Z,99.99
2018-06-18T02:58:18.612Z,99.99
2018-06-18T02:59:19.162Z,99.99
2018-06-18T03:00:19.709Z,99.99
2018-06-18T03:01:20.265Z,99.99
2018-06-18T03:02:20.816Z,99.99
2018-06-18T03:03:21.368Z,99.99
2018-06-18T03:04:21.918Z,99.99
2018-06-18T03:05:22.476Z,99.99
2018-06-18T03:06:23.016Z,99.99
2018-06-18T03:07:23.570Z,99.99
2018-06-18T03:08:24.120Z,99.99
2018-06-18T03:09:24.673Z,99.99
2018-06-18T03:10:25.223Z,99.99
2018-06-18T03:11:25.776Z,99.99
2018-06-18T03:12:26.328Z,99.99
2018-06-18T03:13:26.882Z,99.99
2018-06-18T03:14:27.434Z,99.99
2018-06-18T03:15:27.990Z,99.99
2018-06-18T03:16:28.539Z,99.99
2018-06-18T03:17:29.095Z,99.99
2018-06-18T03:18:29.648Z,99.99
2018-06-18T03:19:30.203Z,99.99
2018-06-18T03:20:30.754Z,99.99
2018-06-18T03:21:31.307Z,99.99
2018-06-18T03:22:31.859Z,99.99
2018-06-18T03:23:32.410Z,99.99
2018-06-18T03:24:32.963Z,99.99
2018-06-18T03:25:33.515Z,99.99
2018-06-18T03:26:34.070Z,99.99
2018-06-18T03:27:34.627Z,99.99
2018-06-18T03:28:35.187Z,99.99
2018-06-18T03:29:35.737Z,99.99
2018-06-18T03:30:36.295Z,99.99
2018-06-18T03:31:36.849Z,99.99
2018-06-18T03:32:37.396Z,99.99
2018-06-18T03:33:37.955Z,99.99
2018-06-18T03:34:38.506Z,99.99
2018-06-18T03:35:39.050Z,99.99
2018-06-18T03:36:39.604Z,99.99
2018-06-18T03:37:40.161Z,99.99
2018-06-18T03:38:40.712Z,99.99
2018-06-18T03:39:41.272Z,99.99
2018-06-18T03:40:41.831Z,99.99
2018-06-18T03:41:42.388Z,99.99
2018-06-18T03:42:42.948Z,99.99
2018-06-18T03:43:43.501Z,99.99
2018-06-18T03:44:44.055Z,99.99
2018-06-18T03:45:44.609Z,99.99
2018-06-18T03:46:45.165Z,99.99
2018-06-18T03:47:45.722Z,99.99
2018-06-18T03:48:46.276Z,99.99
2018-06-18T03:49:46.831Z,99.99
2018-06-18T03:50:47.384Z,99.99
2018-06-18T03:51:47.936Z,99.99
2018-06-18T03:52:48.485Z,99.99
2018-06-18T03:53:49.042Z,99.99
2018-06-18T03:54:49.593Z,99.99
2018-06-18T03:55:50.149Z,99.99
2018-06-18T03:56:50.705Z,99.99
2018-06-18T03:57:51.255Z,99.99
2018-06-18T03:58:51.806Z,99.99
2018-06-18T03:59:52.361Z,99.99
2018-06-18T04:00:52.915Z,99.99
2018-06-18T04:01:53.471Z,99.99
2018-06-18T04:02:54.030Z,99.99
2018-06-18T04:03:54.588Z,99.99
2018-06-18T04:04:55.236Z,99.99
2018-06-18T04:05:55.786Z,99.99
2018-06-18T04:06:56.340Z,99.99
2018-06-18T04:07:56.894Z,99.99
2018-06-18T04:08:57.441Z,99.99
2018-06-18T04:09:57.994Z,99.99
2018-06-18T04:10:58.552Z,99.99
2018-06-18T04:11:59.126Z,99.99
2018-06-18T04:12:59.663Z,99.99
2018-06-18T04:14:00.213Z,99.99
2018-06-18T04:15:00.768Z,99.99
2018-06-18T04:16:01.321Z,99.99
2018-06-18T04:17:01.877Z,99.99
2018-06-18T04:18:02.428Z,99.99
2018-06-18T04:19:02.976Z,99.99
2018-06-18T04:20:03.537Z,99.99
2018-06-18T04:21:04.091Z,99.99
2018-06-18T04:22:04.647Z,99.99
2018-06-18T04:23:05.206Z,99.99
2018-06-18T04:24:05.765Z,99.99
2018-06-18T04:25:06.317Z,99.99
2018-06-18T04:26:06.879Z,99.99
2018-06-18T04:27:07.433Z,99.99
2018-06-18T04:28:07.988Z,99.99
2018-06-18T04:29:08.545Z,99.91
2018-06-18T04:30:09.097Z,99.63
2018-06-18T04:31:09.655Z,99.91
2018-06-18T04:32:10.212Z,99.99
2018-06-18T04:33:10.760Z,99.63
2018-06-18T04:34:11.317Z,99.72
2018-06-18T04:35:11.868Z,99.43
2018-06-18T04:36:12.425Z,99.43
2018-06-18T04:37:12.984Z,99.43
2018-06-18T04:38:13.529Z,99.68
2018-06-18T04:39:14.087Z,99.77
2018-06-18T04:40:14.649Z,99.68
2018-06-18T04:41:15.200Z,99.19
2018-06-18T04:42:15.759Z,99.29
2018-06-18T04:43:16.317Z,99.19
2018-06-18T04:44:16.876Z,99.01
2018-06-18T04:45:17.434Z,98.91
2018-06-18T04:46:17.988Z,98.72
2018-06-18T04:47:18.546Z,98.05
2018-06-18T04:48:19.101Z,97.61
2018-06-18T04:49:19.660Z,97.90
2018-06-18T04:50:20.217Z,97.81
2018-06-18T04:51:20.775Z,97.81
2018-06-18T04:52:21.334Z,97.42
2018-06-18T04:53:21.895Z,97.61
2018-06-18T04:54:22.453Z,97.61
2018-06-18T04:55:23.008Z,98.10
2018-06-18T04:56:23.610Z,97.61
2018-06-18T04:57:24.126Z,97.33
2018-06-18T04:58:24.682Z,97.23
2018-06-18T04:59:25.248Z,97.23
2018-06-18T05:00:25.806Z,97.38
2018-06-18T05:01:26.367Z,96.99
2018-06-18T05:02:26.919Z,96.80
2018-06-18T05:03:27.482Z,94.40
2018-06-18T05:04:28.038Z,95.26
2018-06-18T05:05:28.602Z,95.17
2018-06-18T05:06:29.175Z,94.59
2018-06-18T05:07:29.773Z,94.69
2018-06-18T05:08:30.279Z,94.49
2018-06-18T05:09:30.841Z,95.17
2018-06-18T05:10:31.393Z,95.84
2018-06-18T05:11:31.946Z,95.26
2018-06-18T05:12:32.510Z,94.88
2018-06-18T05:13:33.065Z,93.73
2018-06-18T05:14:33.611Z,93.63
2018-06-18T05:15:34.173Z,94.31
2018-06-18T05:16:34.730Z,93.25
2018-06-18T05:17:35.289Z,94.02
2018-06-18T05:18:35.839Z,93.82
2018-06-18T05:19:36.435Z,93.63
2018-06-18T05:20:36.973Z,92.96
2018-06-18T05:21:37.500Z,93.59
2018-06-18T05:22:38.063Z,93.49
2018-06-18T05:23:38.617Z,92.72
2018-06-18T05:24:39.163Z,91.76
2018-06-18T05:25:39.725Z,92.05
2018-06-18T05:26:40.291Z,92.33
2018-06-18T05:27:40.847Z,93.05
2018-06-18T05:28:41.412Z,92.38
2018-06-18T05:29:41.971Z,92.48
2018-06-18T05:30:42.535Z,93.15
2018-06-18T05:31:43.090Z,92.33
2018-06-18T05:32:43.654Z,89.07
2018-06-18T05:33:44.219Z,88.78
2018-06-18T05:34:44.776Z,89.74
2018-06-18T05:35:45.337Z,89.07
2018-06-18T05:36:45.900Z,89.45
2018-06-18T05:37:46.463Z,89.26
2018-06-18T05:38:47.021Z,88.20
2018-06-18T05:39:47.582Z,88.35
2018-06-18T05:40:48.143Z,88.59
2018-06-18T05:41:48.705Z,88.20
2018-06-18T05:42:49.264Z,87.92
2018-06-18T05:43:49.829Z,87.82
2018-06-18T05:44:50.390Z,88.01
2018-06-18T05:45:50.954Z,87.72
2018-06-18T05:46:51.514Z,87.57
2018-06-18T05:47:52.078Z,87.57
2018-06-18T05:48:52.640Z,87.29
2018-06-18T05:49:53.202Z,86.76
2018-06-18T05:50:53.760Z,86.66
2018-06-18T05:51:54.323Z,86.85
2018-06-18T05:52:55.086Z,86.76
2018-06-18T05:53:55.647Z,87.92
2018-06-18T05:54:56.203Z,87.72
2018-06-18T05:55:56.766Z,87.34
2018-06-18T05:56:57.329Z,87.67
2018-06-18T05:57:57.895Z,87.67
2018-06-18T05:58:58.463Z,88.06
2018-06-18T05:59:59.019Z,88.06
2018-06-18T06:00:59.582Z,87.76
2018-06-18T06:02:00.139Z,87.76
2018-06-18T06:03:00.704Z,87.57
2018-06-18T06:04:01.262Z,88.20
2018-06-18T06:05:01.817Z,87.72
2018-06-18T06:06:02.396Z,89.64
2018-06-18T06:07:02.941Z,90.36
2018-06-18T06:08:03.500Z,89.21
2018-06-18T06:09:04.056Z,89.21
2018-06-18T06:10:04.619Z,89.35
2018-06-18T06:11:05.180Z,88.29
2018-06-18T06:12:05.740Z,87.62
2018-06-18T06:13:06.300Z,87.33
2018-06-18T06:14:06.864Z,87.23
2018-06-18T06:15:07.425Z,87.90
2018-06-18T06:16:07.995Z,87.71
2018-06-18T06:17:08.545Z,87.42
2018-06-18T06:18:09.110Z,86.85
2018-06-18T06:19:09.664Z,86.18
2018-06-18T06:20:10.227Z,85.50
2018-06-18T06:21:10.814Z,85.21
2018-06-18T06:22:11.364Z,86.04
2018-06-18T06:23:11.922Z,87.13
2018-06-18T06:24:12.558Z,85.84
2018-06-18T06:25:13.116Z,86.04
2018-06-18T06:26:13.686Z,85.88
2018-06-18T06:27:14.279Z,85.88
2018-06-18T06:28:14.833Z,85.75
2018-06-18T06:29:15.393Z,85.69
2018-06-18T06:30:15.956Z,87.33
2018-06-18T06:31:16.516Z,86.36
2018-06-18T06:32:17.075Z,87.23
2018-06-18T06:33:17.770Z,86.32
2018-06-18T06:34:18.327Z,86.99
2018-06-18T06:35:18.900Z,86.80
2018-06-18T06:36:19.464Z,86.13
2018-06-18T06:37:20.026Z,86.04
2018-06-18T06:38:20.595Z,86.52
2018-06-18T06:39:21.148Z,86.13
2018-06-18T06:40:21.708Z,85.88
2018-06-18T06:41:22.272Z,86.52
2018-06-18T06:42:22.828Z,86.36
2018-06-18T06:43:23.392Z,86.42
2018-06-18T06:44:23.950Z,85.94
2018-06-18T06:45:24.515Z,86.13
2018-06-18T06:46:25.077Z,86.80
2018-06-18T06:47:25.629Z,87.29
2018-06-18T06:48:26.193Z,86.85
2018-06-18T06:49:26.782Z,86.61
2018-06-18T06:50:27.381Z,86.94
2018-06-18T06:51:27.940Z,86.90
2018-06-18T06:52:28.500Z,86.42
2018-06-18T06:53:29.055Z,87.33
2018-06-18T06:54:29.618Z,87.90
2018-06-18T06:55:30.176Z,87.52
2018-06-18T06:56:30.755Z,86.27
2018-06-18T06:57:31.306Z,86.56
2018-06-18T06:58:31.861Z,85.88
2018-06-18T06:59:32.424Z,87.52
2018-06-18T07:00:32.982Z,87.19
2018-06-18T07:01:33.538Z,86.36
2018-06-18T07:03:49.638Z,86.18
2018-06-18T07:04:50.152Z,85.50
2018-06-18T07:05:50.714Z,85.21
2018-06-18T07:06:51.275Z,86.27
2018-06-18T07:07:51.834Z,85.69
2018-06-18T07:08:52.402Z,85.02
2018-06-18T07:09:52.965Z,84.63
2018-06-18T07:10:53.526Z,84.25
2018-06-18T07:11:54.095Z,84.83
2018-06-18T07:12:54.656Z,85.11
2018-06-18T07:13:55.215Z,84.97
2018-06-18T07:14:55.781Z,84.29
2018-06-18T07:15:56.344Z,83.39
2018-06-18T07:16:56.905Z,83.72
2018-06-18T07:17:57.464Z,83.62
2018-06-18T07:18:58.030Z,83.81
2018-06-18T07:19:58.670Z,83.81
2018-06-18T07:20:59.229Z,83.37
2018-06-18T07:21:59.791Z,82.89
2018-06-18T07:23:00.385Z,82.70
2018-06-18T07:24:00.922Z,81.93
2018-06-18T07:25:01.486Z,81.01
2018-06-18T07:26:02.072Z,81.10
2018-06-18T07:27:02.664Z,80.52
2018-06-18T07:28:03.241Z,79.66
2018-06-18T07:29:03.821Z,79.98
2018-06-18T07:30:04.334Z,79.69
2018-06-18T07:31:04.884Z,79.11
2018-06-18T07:32:05.452Z,78.29
2018-06-18T07:33:06.024Z,77.23
2018-06-18T07:34:06.585Z,77.33
2018-06-18T07:35:07.152Z,77.13
2018-06-18T07:36:07.715Z,77.71
2018-06-18T07:37:08.275Z,77.03
2018-06-18T07:38:08.842Z,77.33
2018-06-18T07:39:09.401Z,77.71
2018-06-18T07:40:09.973Z,79.44
2018-06-18T07:41:10.534Z,78.81
2018-06-18T07:42:11.102Z,77.03
2018-06-18T07:43:11.668Z,77.90
2018-06-18T07:44:12.231Z,77.61
2018-06-18T07:45:12.800Z,76.65
2018-06-18T07:46:13.365Z,77.03
2018-06-18T07:47:13.924Z,76.68
2018-06-18T07:48:14.497Z,76.92
2018-06-18T07:49:15.060Z,76.24
2018-06-18T07:50:15.628Z,75.41
2018-06-18T07:51:16.193Z,73.96
2018-06-18T07:52:16.768Z,74.54
2018-06-18T07:53:17.344Z,73.28
2018-06-18T07:54:17.900Z,73.19
2018-06-18T07:55:18.464Z,73.38
2018-06-18T07:56:19.034Z,73.96
2018-06-18T07:57:19.605Z,73.67
2018-06-18T07:58:20.251Z,72.94
2018-06-18T07:59:20.828Z,72.00
2018-06-18T08:00:21.403Z,71.17
2018-06-18T08:01:21.976Z,70.88
2018-06-18T08:02:22.559Z,70.92
2018-06-18T08:03:23.120Z,69.85
2018-06-18T08:04:23.766Z,70.14
2018-06-18T08:05:24.548Z,68.30
2018-06-18T08:06:25.430Z,70.04
2018-06-18T08:07:25.928Z,70.24
2018-06-18T08:08:26.804Z,68.40
2018-06-18T08:09:27.338Z,69.56
2018-06-18T08:10:27.904Z,68.88
2018-06-18T08:11:28.474Z,69.17
2018-06-18T08:12:29.047Z,68.53
2018-06-18T08:13:29.696Z,68.98
2018-06-18T08:14:30.345Z,69.21
2018-06-18T08:15:30.886Z,68.76
2018-06-18T08:16:31.454Z,69.05
2018-06-18T08:17:32.009Z,67.69
2018-06-18T08:18:32.582Z,68.08
2018-06-18T08:19:33.153Z,67.88
2018-06-18T08:20:33.721Z,67.76
2018-06-18T08:21:34.303Z,68.08
2018-06-18T08:22:34.874Z,67.30
2018-06-18T08:23:35.445Z,67.98
2018-06-18T08:24:36.066Z,67.88
2018-06-18T08:25:36.638Z,68.08
2018-06-18T08:26:37.242Z,68.27
2018-06-18T08:27:37.808Z,67.53
2018-06-18T08:28:38.377Z,68.24
2018-06-18T08:29:38.974Z,67.37
2018-06-18T08:30:39.550Z,66.75
2018-06-18T08:31:40.322Z,66.63
2018-06-18T08:32:40.895Z,67.40
2018-06-18T08:33:41.462Z,67.05
2018-06-18T08:34:42.025Z,66.75
2018-06-18T08:35:42.601Z,66.27
2018-06-18T08:36:43.181Z,66.17
2018-06-18T08:37:43.748Z,65.62
2018-06-18T08:38:44.318Z,65.08
2018-06-18T08:39:44.896Z,65.75
2018-06-18T08:40:45.492Z,64.59
2018-06-18T08:41:46.057Z,64.30
2018-06-18T08:42:46.625Z,65.01
2018-06-18T08:43:47.200Z,64.69
2018-06-18T08:44:47.775Z,64.50
2018-06-18T08:45:48.349Z,64.01
2018-06-18T08:46:48.925Z,64.11
2018-06-18T08:47:49.504Z,64.62
2018-06-18T08:48:50.090Z,64.23
2018-06-18T08:49:50.780Z,64.59
2018-06-18T08:50:51.353Z,61.90
2018-06-18T08:51:51.929Z,60.93
2018-06-18T08:52:52.504Z,61.74
2018-06-18T08:53:53.133Z,60.99
2018-06-18T08:54:53.702Z,59.82
2018-06-18T08:55:54.276Z,59.79
2018-06-18T08:56:54.851Z,59.76
2018-06-18T08:57:55.439Z,60.64
2018-06-18T08:58:56.000Z,60.35
2018-06-18T08:59:56.578Z,59.92
2018-06-18T09:00:57.151Z,60.80
2018-06-18T09:01:57.723Z,61.00
2018-06-18T09:02:58.291Z,61.68
2018-06-18T09:03:58.858Z,61.55
2018-06-18T09:04:59.435Z,61.74
2018-06-18T09:06:00.007Z,62.91
2018-06-18T09:07:00.577Z,63.39
2018-06-18T09:08:01.149Z,61.52
2018-06-18T09:09:01.727Z,62.55
2018-06-18T09:10:02.372Z,63.91
2018-06-18T09:11:02.893Z,63.82
2018-06-18T09:12:03.446Z,63.88
2018-06-18T09:13:04.046Z,64.72
2018-06-18T09:14:04.635Z,65.11
2018-06-18T09:15:05.164Z,66.14
2018-06-18T09:16:05.737Z,66.14
2018-06-18T09:17:06.301Z,66.78
2018-06-18T09:18:06.879Z,66.69
2018-06-18T09:19:07.473Z,67.95
2018-06-18T09:20:08.013Z,67.27
2018-06-18T09:21:08.585Z,66.92
2018-06-18T09:22:09.139Z,67.53
2018-06-18T09:23:09.705Z,66.47
2018-06-18T09:24:10.278Z,66.30
2018-06-18T09:25:10.853Z,65.62
2018-06-18T09:26:11.420Z,65.40
2018-06-18T09:27:11.998Z,65.59
2018-06-18T09:28:12.566Z,65.47
2018-06-18T09:29:13.136Z,65.17
2018-06-18T09:30:13.717Z,65.95
2018-06-18T09:31:14.281Z,66.11
2018-06-18T09:32:15.223Z,65.08
2018-06-18T09:33:15.642Z,64.20
2018-06-18T09:34:16.214Z,64.14
2018-06-18T09:35:16.782Z,64.07
2018-06-18T09:36:17.357Z,62.55
2018-06-18T09:37:17.924Z,61.55
2018-06-18T09:38:18.528Z,62.62
2018-06-18T09:39:19.131Z,63.20
2018-06-18T09:40:19.696Z,63.07
2018-06-18T09:41:20.285Z,62.81
2018-06-18T09:42:20.859Z,62.84
2018-06-18T09:43:21.420Z,62.35
2018-06-18T09:44:22.061Z,63.39
2018-06-18T09:45:22.666Z,63.59
2018-06-18T09:46:23.214Z,63.65
2018-06-18T09:47:23.791Z,64.01
2018-06-18T09:48:24.373Z,63.82
2018-06-18T09:49:24.935Z,64.69
2018-06-18T09:50:25.500Z,64.69
2018-06-18T09:51:26.070Z,64.65
2018-06-18T09:52:26.725Z,65.14
2018-06-18T09:53:27.260Z,65.59
2018-06-18T09:54:27.830Z,66.02
2018-06-18T09:55:28.408Z,66.30
2018-06-18T09:56:28.970Z,66.17
2018-06-18T09:57:29.549Z,67.08
2018-06-18T09:58:30.120Z,66.66
2018-06-18T09:59:30.741Z,66.75
2018-06-18T10:00:31.276Z,67.40
2018-06-18T10:01:31.854Z,68.08
2018-06-18T10:02:32.421Z,68.18
2018-06-18T10:03:32.999Z,68.27
2018-06-18T10:04:33.560Z,68.70
2018-06-18T10:05:34.137Z,68.47
2018-06-18T10:06:34.710Z,69.05
2018-06-18T10:07:35.302Z,68.56
2018-06-18T10:08:35.948Z,68.56
2018-06-18T10:09:36.438Z,68.02
2018-06-18T10:10:37.020Z,68.08
2018-06-18T10:11:37.605Z,67.24
2018-06-18T10:12:38.166Z,66.75
2018-06-18T10:13:38.796Z,66.79
2018-06-18T10:14:39.353Z,66.69
2018-06-18T10:15:39.963Z,66.44
2018-06-18T10:16:40.524Z,65.40
2018-06-18T10:17:41.095Z,65.69
2018-06-18T10:18:41.661Z,65.11
2018-06-18T10:19:42.224Z,65.33
2018-06-18T10:20:42.800Z,65.53
2018-06-18T10:21:43.377Z,64.36
2018-06-18T10:22:43.952Z,64.26
2018-06-18T10:23:44.557Z,64.17
2018-06-18T10:24:45.108Z,64.17
2018-06-18T10:25:45.686Z,64.23
2018-06-18T10:26:46.251Z,64.11
2018-06-18T10:27:46.823Z,65.17
2018-06-18T10:28:47.588Z,65.37
2018-06-18T10:29:48.164Z,65.27
2018-06-18T10:30:48.726Z,65.66
2018-06-18T10:31:49.295Z,65.75
2018-06-18T10:32:49.876Z,65.27
2018-06-18T10:33:50.469Z,65.37
2018-06-18T10:34:51.038Z,66.24
2018-06-18T10:35:51.700Z,65.95
2018-06-18T10:36:52.290Z,67.02
2018-06-18T10:37:52.862Z,66.99
2018-06-18T10:38:53.475Z,67.37
2018-06-18T10:39:54.059Z,68.05
2018-06-18T10:40:54.639Z,67.27
2018-06-18T10:41:55.224Z,67.40
2018-06-18T10:42:55.808Z,66.82
2018-06-18T10:43:56.366Z,66.92
2018-06-18T10:44:56.948Z,67.14
2018-06-18T10:45:57.521Z,66.86
2018-06-18T10:46:58.112Z,66.24
2018-06-18T10:47:58.700Z,66.17
2018-06-18T10:48:59.333Z,66.17
2018-06-18T10:49:59.840Z,66.14
2018-06-18T10:51:00.434Z,66.17
2018-06-18T10:52:01.031Z,66.24
2018-06-18T10:53:01.584Z,66.72
2018-06-18T10:54:02.142Z,67.02
2018-06-18T10:55:02.714Z,66.92
2018-06-18T10:56:03.370Z,66.86
2018-06-18T10:57:03.923Z,66.76
2018-06-18T10:58:04.656Z,67.05
2018-06-18T10:59:05.222Z,65.50
2018-06-18T11:00:05.793Z,65.95
2018-06-18T11:01:06.369Z,66.86
2018-06-18T11:02:06.933Z,66.11
2018-06-18T11:03:07.516Z,66.99
2018-06-18T11:04:08.079Z,66.99
2018-06-18T11:05:08.670Z,66.92
2018-06-18T11:06:09.314Z,67.31
2018-06-18T11:07:09.922Z,67.40
2018-06-18T11:08:10.495Z,66.92
2018-06-18T11:09:11.067Z,66.82
2018-06-18T11:10:11.678Z,67.11
2018-06-18T11:11:12.235Z,67.57
2018-06-18T11:12:12.825Z,68.44
2018-06-18T11:13:13.439Z,67.85
2018-06-18T11:14:14.009Z,68.34
2018-06-18T11:15:14.590Z,68.79
2018-06-18T11:16:15.323Z,69.76
2018-06-18T11:17:16.050Z,69.76
2018-06-18T11:18:16.393Z,69.21
2018-06-18T11:19:16.966Z,68.05
2018-06-18T11:20:17.569Z,68.08
2018-06-18T11:21:18.152Z,67.79
2018-06-18T11:22:18.711Z,68.18
2018-06-18T11:23:19.371Z,67.92
2018-06-18T11:24:19.970Z,68.12
2018-06-18T11:25:20.725Z,66.92
2018-06-18T11:26:21.251Z,67.40
2018-06-18T11:27:21.893Z,67.24
2018-06-18T11:28:22.483Z,66.89
2018-06-18T11:29:23.120Z,67.60
2018-06-18T11:30:23.666Z,66.30
2018-06-18T11:31:24.235Z,66.86
2018-06-18T11:32:24.832Z,66.86
2018-06-18T11:33:25.409Z,67.24
2018-06-18T11:34:25.983Z,66.56
2018-06-18T11:35:26.564Z,67.02
2018-06-18T11:36:27.151Z,67.11
2018-06-18T11:37:27.728Z,67.60
2018-06-18T11:38:28.308Z,66.82
2018-06-18T11:39:28.931Z,67.21
2018-06-18T11:40:29.452Z,67.85
2018-06-18T11:41:30.053Z,68.05
2018-06-18T11:42:30.619Z,68.15
2018-06-18T11:43:31.223Z,68.15
2018-06-18T11:44:31.776Z,68.24
2018-06-18T11:45:32.330Z,68.92
2018-06-18T11:46:32.889Z,68.92
2018-06-18T11:47:33.478Z,69.02
2018-06-18T11:48:34.256Z,68.82
2018-06-18T11:49:34.829Z,68.79
2018-06-18T11:50:35.408Z,68.99
2018-06-18T11:51:36.052Z,68.99
2018-06-18T11:52:36.639Z,68.82
2018-06-18T11:53:37.236Z,69.08
2018-06-18T11:54:37.856Z,69.27
2018-06-18T11:55:38.444Z,69.08
2018-06-18T11:56:39.052Z,69.57
2018-06-18T11:57:39.931Z,69.57
2018-06-18T11:58:40.448Z,69.18
2018-06-18T11:59:41.058Z,68.70
2018-06-18T12:00:41.650Z,69.47
2018-06-18T12:01:42.283Z,69.18
2018-06-18T12:02:42.923Z,69.21
2018-06-18T12:03:43.535Z,68.63
2018-06-18T12:04:44.187Z,68.76
2018-06-18T12:05:44.834Z,68.34
2018-06-18T12:06:45.470Z,67.85
2018-06-18T12:07:46.147Z,68.73
2018-06-18T12:08:46.755Z,69.12
2018-06-18T12:09:47.515Z,68.86
2018-06-18T12:10:48.050Z,69.15
2018-06-18T12:11:48.731Z,68.66
2018-06-18T12:12:49.428Z,68.76
2018-06-18T12:13:50.113Z,68.63
2018-06-18T12:14:51.251Z,68.92
2018-06-18T12:15:51.860Z,69.89
2018-06-18T12:16:52.622Z,69.37
2018-06-18T12:17:53.716Z,69.95
2018-06-18T12:18:54.561Z,70.92
2018-06-18T12:19:55.262Z,70.25
2018-06-18T12:20:56.090Z,70.92
2018-06-18T12:21:56.832Z,71.18
2018-06-18T12:22:57.529Z,70.21
2018-06-18T12:23:58.200Z,71.37
2018-06-18T12:24:59.159Z,71.18
2018-06-18T12:26:00.346Z,72.15
2018-06-18T12:27:01.029Z,72.15
2018-06-18T12:28:02.121Z,72.11
2018-06-18T12:29:02.905Z,72.21
2018-06-18T12:30:03.713Z,72.85
2018-06-18T12:31:04.708Z,73.63
2018-06-18T12:32:05.409Z,73.82
2018-06-18T12:33:06.117Z,74.59
2018-06-18T12:34:06.929Z,74.65
2018-06-18T12:35:07.666Z,74.75
2018-06-18T12:36:08.442Z,74.94
2018-06-18T12:37:09.203Z,75.29
2018-06-18T12:38:09.972Z,75.48
2018-06-18T12:39:10.726Z,75.84
2018-06-18T12:40:11.549Z,76.03
2018-06-18T12:41:12.401Z,76.03
2018-06-18T12:42:13.087Z,76.93
2018-06-18T12:43:13.871Z,77.38
2018-06-18T12:44:14.653Z,77.48
2018-06-18T12:45:15.927Z,78.15
2018-06-18T12:46:16.612Z,78.83
2018-06-18T12:47:17.392Z,78.69
2018-06-18T12:48:18.141Z,78.59
2018-06-18T12:49:18.882Z,78.83
2018-06-18T12:50:19.590Z,79.02
2018-06-18T12:51:20.319Z,78.73
2018-06-18T12:52:21.088Z,78.15
2018-06-18T12:53:21.747Z,78.64
2018-06-18T12:54:22.392Z,78.54
2018-06-18T12:55:23.069Z,79.80
2018-06-18T12:56:23.827Z,79.02
2018-06-18T12:57:25.003Z,78.64
2018-06-18T12:58:25.657Z,78.64
2018-06-18T12:59:26.441Z,78.54
2018-06-18T13:00:27.133Z,78.54
2018-06-18T13:01:27.912Z,78.64